sensor_id;sensor_type;location;lat;lon;timestamp;pressure;altitude;pressure_sealevel;temperature;humidity
63654;BME280;49809;47.418;19.080;2023-02-28T00:07:00;101601.59;;;-0.18;65.18
63654;BME280;49809;47.418;19.080;2023-02-28T00:14:29;101612.97;;;-0.02;64.97
63654;BME280;49809;47.418;19.080;2023-02-28T00:18:10;101610.16;;;-0.08;65.62
63654;BME280;49809;47.418;19.080;2023-02-28T00:21:51;101609.56;;;-0.02;65.00
63654;BME280;49809;47.418;19.080;2023-02-28T00:25:37;101620.06;;;-0.12;64.89
63654;BME280;49809;47.418;19.080;2023-02-28T00:32:52;101629.25;;;0.00;65.19
63654;BME280;49809;47.418;19.080;2023-02-28T00:40:45;101628.66;;;0.07;64.57
63654;BME280;49809;47.418;19.080;2023-02-28T00:52:17;101637.97;;;0.09;64.86
63654;BME280;49809;47.418;19.080;2023-02-28T00:56:11;101628.81;;;0.05;65.08
63654;BME280;49809;47.418;19.080;2023-02-28T01:00:08;101629.47;;;0.07;64.90
63654;BME280;49809;47.418;19.080;2023-02-28T01:07:57;101633.41;;;0.11;66.16
63654;BME280;49809;47.418;19.080;2023-02-28T01:11:41;101633.13;;;0.14;66.52
63654;BME280;49809;47.418;19.080;2023-02-28T01:18:55;101638.62;;;0.11;66.19
63654;BME280;49809;47.418;19.080;2023-02-28T01:34:09;101637.28;;;0.07;65.43
63654;BME280;49809;47.418;19.080;2023-02-28T01:38:02;101634.91;;;0.14;65.29
63654;BME280;49809;47.418;19.080;2023-02-28T01:42:03;101640.22;;;0.04;65.29
63654;BME280;49809;47.418;19.080;2023-02-28T01:45:49;101632.41;;;0.04;66.07
63654;BME280;49809;47.418;19.080;2023-02-28T01:49:33;101630.63;;;0.05;65.95
63654;BME280;49809;47.418;19.080;2023-02-28T01:53:17;101636.97;;;0.10;65.89
63654;BME280;49809;47.418;19.080;2023-02-28T01:56:54;101628.53;;;0.08;65.98
63654;BME280;49809;47.418;19.080;2023-02-28T02:00:39;101628.66;;;0.07;65.32
63654;BME280;49809;47.418;19.080;2023-02-28T02:04:26;101638.34;;;0.14;65.84
63654;BME280;49809;47.418;19.080;2023-02-28T02:12:13;101624.69;;;0.20;65.09
63654;BME280;49809;47.418;19.080;2023-02-28T02:42:02;101631.59;;;0.29;65.72
63654;BME280;49809;47.418;19.080;2023-02-28T02:53:34;101622.78;;;0.22;66.14
63654;BME280;49809;47.418;19.080;2023-02-28T02:57:22;101625.44;;;0.30;67.05
63654;BME280;49809;47.418;19.080;2023-02-28T03:01:02;101626.16;;;0.40;66.17
63654;BME280;49809;47.418;19.080;2023-02-28T03:05:15;101626.47;;;0.37;66.53
63654;BME280;49809;47.418;19.080;2023-02-28T03:08:56;101630.50;;;0.32;66.86
63654;BME280;49809;47.418;19.080;2023-02-28T03:17:46;101628.03;;;0.30;66.47
63654;BME280;49809;47.418;19.080;2023-02-28T03:26:23;101630.63;;;0.30;66.41
63654;BME280;49809;47.418;19.080;2023-02-28T03:42:33;101642.38;;;0.34;66.37
63654;BME280;49809;47.418;19.080;2023-02-28T04:01:09;101639.03;;;0.24;67.29
63654;BME280;49809;47.418;19.080;2023-02-28T04:13:12;101623.41;;;0.24;65.00
63654;BME280;49809;47.418;19.080;2023-02-28T04:16:53;101625.44;;;0.30;64.68
63654;BME280;49809;47.418;19.080;2023-02-28T04:24:43;101632.81;;;0.17;64.85
63654;BME280;49809;47.418;19.080;2023-02-28T04:28:14;101628.19;;;0.29;65.32
63654;BME280;49809;47.418;19.080;2023-02-28T04:31:52;101617.50;;;0.14;65.62
63654;BME280;49809;47.418;19.080;2023-02-28T04:35:37;101623.28;;;0.26;65.75
63654;BME280;49809;47.418;19.080;2023-02-28T04:39:45;101625.75;;;0.27;65.66
63654;BME280;49809;47.418;19.080;2023-02-28T04:43:29;101621.84;;;0.31;65.84
63654;BME280;49809;47.418;19.080;2023-02-28T04:47:06;101624.16;;;0.34;66.04
63654;BME280;49809;47.418;19.080;2023-02-28T04:50:44;101623.19;;;0.35;65.80
63654;BME280;49809;47.418;19.080;2023-02-28T04:54:19;101624.41;;;0.23;65.91
63654;BME280;49809;47.418;19.080;2023-02-28T04:58:02;101625.75;;;0.27;65.67
63654;BME280;49809;47.418;19.080;2023-02-28T05:09:29;101621.13;;;0.21;66.04
63654;BME280;49809;47.418;19.080;2023-02-28T05:13:00;101617.78;;;0.29;65.95
63654;BME280;49809;47.418;19.080;2023-02-28T05:20:37;101621.84;;;0.31;65.45
63654;BME280;49809;47.418;19.080;2023-02-28T05:24:17;101621.62;;;0.25;65.99
63654;BME280;49809;47.418;19.080;2023-02-28T05:28:10;101627.22;;;0.30;65.71
63654;BME280;49809;47.418;19.080;2023-02-28T05:36:27;101637.47;;;0.31;64.97
63654;BME280;49809;47.418;19.080;2023-02-28T05:47:33;101644.94;;;0.26;64.03
63654;BME280;49809;47.418;19.080;2023-02-28T05:51:35;101640.91;;;0.32;64.54
63654;BME280;49809;47.418;19.080;2023-02-28T05:55:11;101642.75;;;0.39;64.92
63654;BME280;49809;47.418;19.080;2023-02-28T05:58:53;101652.50;;;0.37;64.76
63654;BME280;49809;47.418;19.080;2023-02-28T06:02:24;101653.25;;;0.48;64.08
63654;BME280;49809;47.418;19.080;2023-02-28T06:06:06;101654.09;;;0.56;63.98
63654;BME280;49809;47.418;19.080;2023-02-28T06:13:39;101651.41;;;0.66;63.52
63654;BME280;49809;47.418;19.080;2023-02-28T06:29:07;101660.69;;;0.94;61.03
63654;BME280;49809;47.418;19.080;2023-02-28T06:33:04;101669.56;;;1.09;60.67
63654;BME280;49809;47.418;19.080;2023-02-28T06:36:22;101670.53;;;1.16;60.90
63654;BME280;49809;47.418;19.080;2023-02-28T06:44:15;101686.44;;;1.31;60.47
63654;BME280;49809;47.418;19.080;2023-02-28T06:48:03;101678.53;;;1.57;59.37
63654;BME280;49809;47.418;19.080;2023-02-28T06:51:48;101682.50;;;1.69;60.27
63654;BME280;49809;47.418;19.080;2023-02-28T07:03:04;101675.03;;;1.90;58.05
63654;BME280;49809;47.418;19.080;2023-02-28T07:06:50;101685.31;;;1.84;58.06
63654;BME280;49809;47.418;19.080;2023-02-28T07:10:26;101687.44;;;1.88;58.06
63654;BME280;49809;47.418;19.080;2023-02-28T07:14:05;101685.66;;;2.05;57.28
63654;BME280;49809;47.418;19.080;2023-02-28T07:17:50;101687.06;;;1.75;57.99
63654;BME280;49809;47.418;19.080;2023-02-28T07:21:34;101687.44;;;2.04;57.55
63654;BME280;49809;47.418;19.080;2023-02-28T07:25:12;101692.19;;;2.25;57.03
63654;BME280;49809;47.418;19.080;2023-02-28T07:28:36;101694.16;;;2.31;55.95
63654;BME280;49809;47.418;19.080;2023-02-28T07:32:22;101693.28;;;1.74;57.48
63654;BME280;49809;47.418;19.080;2023-02-28T07:35:52;101698.41;;;2.40;56.63
63654;BME280;49809;47.418;19.080;2023-02-28T07:39:24;101703.31;;;2.43;55.75
63654;BME280;49809;47.418;19.080;2023-02-28T07:42:50;101702.00;;;2.55;55.09
63654;BME280;49809;47.418;19.080;2023-02-28T07:46:23;101707.22;;;2.31;55.78
63654;BME280;49809;47.418;19.080;2023-02-28T07:50:00;101702.66;;;2.41;55.83
63654;BME280;49809;47.418;19.080;2023-02-28T07:53:35;101711.47;;;2.65;55.61
63654;BME280;49809;47.418;19.080;2023-02-28T07:57:11;101705.09;;;2.75;55.10
63654;BME280;49809;47.418;19.080;2023-02-28T08:00:32;101701.56;;;3.07;54.03
63654;BME280;49809;47.418;19.080;2023-02-28T08:08:04;101701.25;;;3.02;52.38
63654;BME280;49809;47.418;19.080;2023-02-28T08:11:49;101696.09;;;3.33;51.57
63654;BME280;49809;47.418;19.080;2023-02-28T08:15:14;101705.69;;;3.79;51.80
63654;BME280;49809;47.418;19.080;2023-02-28T08:18:49;101705.19;;;4.07;50.20
63654;BME280;49809;47.418;19.080;2023-02-28T08:22:41;101708.31;;;3.79;50.52
63654;BME280;49809;47.418;19.080;2023-02-28T08:26:04;101705.06;;;4.00;49.86
63654;BME280;49809;47.418;19.080;2023-02-28T08:29:42;101702.38;;;3.85;49.80
63654;BME280;49809;47.418;19.080;2023-02-28T08:33:47;101712.28;;;3.98;49.49
63654;BME280;49809;47.418;19.080;2023-02-28T08:37:13;101699.94;;;4.07;49.74
63654;BME280;49809;47.418;19.080;2023-02-28T08:40:59;101699.13;;;4.29;50.04
63654;BME280;49809;47.418;19.080;2023-02-28T08:44:07;101696.38;;;4.22;50.65
63654;BME280;49809;47.418;19.080;2023-02-28T08:47:11;101700.28;;;4.04;49.95
63654;BME280;49809;47.418;19.080;2023-02-28T08:50:18;101694.59;;;4.23;50.24
63654;BME280;49809;47.418;19.080;2023-02-28T08:53:31;101697.50;;;4.28;49.63
63654;BME280;49809;47.418;19.080;2023-02-28T08:56:57;101696.44;;;4.37;49.89
63654;BME280;49809;47.418;19.080;2023-02-28T09:00:09;101692.47;;;4.41;49.12
63654;BME280;49809;47.418;19.080;2023-02-28T09:03:12;101701.06;;;4.35;50.17
63654;BME280;49809;47.418;19.080;2023-02-28T09:06:21;101704.50;;;4.35;51.88
63654;BME280;49809;47.418;19.080;2023-02-28T09:09:37;101701.69;;;4.37;51.63
63654;BME280;49809;47.418;19.080;2023-02-28T09:16:47;101699.25;;;4.88;49.35
63654;BME280;49809;47.418;19.080;2023-02-28T09:20:15;101701.88;;;4.73;49.50
63654;BME280;49809;47.418;19.080;2023-02-28T09:23:19;101703.88;;;5.00;50.12
63654;BME280;49809;47.418;19.080;2023-02-28T09:27:02;101704.44;;;5.10;49.27
63654;BME280;49809;47.418;19.080;2023-02-28T09:30:12;101703.44;;;5.26;49.19
63654;BME280;49809;47.418;19.080;2023-02-28T09:33:56;101702.25;;;5.29;48.32
63654;BME280;49809;47.418;19.080;2023-02-28T09:37:19;101695.66;;;5.68;46.35
63654;BME280;49809;47.418;19.080;2023-02-28T09:40:26;101704.44;;;5.76;47.11
63654;BME280;49809;47.418;19.080;2023-02-28T09:43:57;101690.69;;;5.74;46.99
63654;BME280;49809;47.418;19.080;2023-02-28T09:47:31;101706.50;;;4.86;48.51
63654;BME280;49809;47.418;19.080;2023-02-28T09:51:04;101706.50;;;5.44;48.56
63654;BME280;49809;47.418;19.080;2023-02-28T09:55:22;101695.34;;;5.93;47.48
63654;BME280;49809;47.418;19.080;2023-02-28T10:10:47;101678.56;;;6.58;45.69
63654;BME280;49809;47.418;19.080;2023-02-28T10:14:34;101678.94;;;6.82;46.58
63654;BME280;49809;47.418;19.080;2023-02-28T10:17:41;101679.88;;;6.75;46.68
63654;BME280;49809;47.418;19.080;2023-02-28T10:21:28;101680.47;;;6.42;46.05
63654;BME280;49809;47.418;19.080;2023-02-28T10:24:54;101676.19;;;6.69;46.12
63654;BME280;49809;47.418;19.080;2023-02-28T10:28:33;101671.00;;;6.27;46.44
63654;BME280;49809;47.418;19.080;2023-02-28T10:31:39;101677.37;;;6.94;44.46
63654;BME280;49809;47.418;19.080;2023-02-28T10:38:24;101668.81;;;6.86;45.79
63654;BME280;49809;47.418;19.080;2023-02-28T10:41:48;101668.06;;;6.92;46.41
63654;BME280;49809;47.418;19.080;2023-02-28T10:45:13;101663.78;;;6.35;47.13
63654;BME280;49809;47.418;19.080;2023-02-28T10:48:42;101654.50;;;6.39;47.99
63654;BME280;49809;47.418;19.080;2023-02-28T10:52:09;101651.78;;;6.26;47.89
63654;BME280;49809;47.418;19.080;2023-02-28T10:55:58;101662.28;;;6.47;47.32
63654;BME280;49809;47.418;19.080;2023-02-28T11:02:35;101653.84;;;6.59;46.59
63654;BME280;49809;47.418;19.080;2023-02-28T11:06:07;101647.00;;;7.46;45.13
63654;BME280;49809;47.418;19.080;2023-02-28T11:09:39;101646.44;;;6.41;46.35
63654;BME280;49809;47.418;19.080;2023-02-28T11:17:20;101648.25;;;7.43;45.34
63654;BME280;49809;47.418;19.080;2023-02-28T11:20:33;101643.50;;;7.93;44.28
63654;BME280;49809;47.418;19.080;2023-02-28T11:24:35;101643.03;;;6.75;45.77
63654;BME280;49809;47.418;19.080;2023-02-28T11:28:03;101637.25;;;7.33;45.31
63654;BME280;49809;47.418;19.080;2023-02-28T11:31:31;101631.91;;;6.73;46.20
63654;BME280;49809;47.418;19.080;2023-02-28T11:35:21;101637.34;;;6.71;46.69
63654;BME280;49809;47.418;19.080;2023-02-28T11:39:30;101626.34;;;7.43;45.35
63654;BME280;49809;47.418;19.080;2023-02-28T11:46:49;101629.31;;;8.34;43.97
63654;BME280;49809;47.418;19.080;2023-02-28T11:50:04;101620.28;;;9.00;42.45
63654;BME280;49809;47.418;19.080;2023-02-28T12:28:48;101579.00;;;8.22;44.66
63654;BME280;49809;47.418;19.080;2023-02-28T12:36:26;101576.47;;;7.35;47.26
63654;BME280;49809;47.418;19.080;2023-02-28T12:40:10;101578.78;;;8.23;46.29
63654;BME280;49809;47.418;19.080;2023-02-28T12:44:02;101573.72;;;7.96;47.04
63654;BME280;49809;47.418;19.080;2023-02-28T12:51:51;101569.03;;;7.58;47.27
63654;BME280;49809;47.418;19.080;2023-02-28T12:55:08;101564.78;;;7.57;45.79
63654;BME280;49809;47.418;19.080;2023-02-28T12:58:58;101559.47;;;7.44;47.60
63654;BME280;49809;47.418;19.080;2023-02-28T13:10:55;101551.81;;;7.95;47.05
63654;BME280;49809;47.418;19.080;2023-02-28T13:22:49;101550.22;;;7.74;48.25
63654;BME280;49809;47.418;19.080;2023-02-28T13:34:17;101542.03;;;7.43;48.18
63654;BME280;49809;47.418;19.080;2023-02-28T13:37:44;101539.63;;;7.61;47.93
63654;BME280;49809;47.418;19.080;2023-02-28T13:48:18;101524.84;;;7.80;47.42
63654;BME280;49809;47.418;19.080;2023-02-28T14:07:06;101517.72;;;7.48;49.57
63654;BME280;49809;47.418;19.080;2023-02-28T14:27:48;101504.31;;;7.16;50.06
63654;BME280;49809;47.418;19.080;2023-02-28T14:43:33;101500.91;;;6.68;51.24
63654;BME280;49809;47.418;19.080;2023-02-28T14:47:13;101506.22;;;6.81;50.69
63654;BME280;49809;47.418;19.080;2023-02-28T14:51:02;101501.66;;;6.55;51.95
63654;BME280;49809;47.418;19.080;2023-02-28T14:54:06;101510.09;;;6.44;52.17
63654;BME280;49809;47.418;19.080;2023-02-28T14:58:04;101507.63;;;6.36;52.51
63654;BME280;49809;47.418;19.080;2023-02-28T15:01:36;101505.84;;;6.09;54.12
63654;BME280;49809;47.418;19.080;2023-02-28T15:05:34;101512.28;;;6.00;55.21
63654;BME280;49809;47.418;19.080;2023-02-28T15:09:14;101518.03;;;6.17;55.34
63654;BME280;49809;47.418;19.080;2023-02-28T15:12:40;101526.00;;;5.95;55.86
63654;BME280;49809;47.418;19.080;2023-02-28T15:27:45;101514.31;;;5.55;57.56
63654;BME280;49809;47.418;19.080;2023-02-28T15:35:37;101512.34;;;5.43;57.71
63654;BME280;49809;47.418;19.080;2023-02-28T15:39:22;101511.66;;;5.34;58.41
63654;BME280;49809;47.418;19.080;2023-02-28T15:47:06;101509.03;;;5.34;58.54
63654;BME280;49809;47.418;19.080;2023-02-28T15:50:57;101512.03;;;5.31;58.71
63654;BME280;49809;47.418;19.080;2023-02-28T15:54:28;101504.56;;;5.13;59.21
63654;BME280;49809;47.418;19.080;2023-02-28T16:02:31;101508.53;;;5.03;59.32
63654;BME280;49809;47.418;19.080;2023-02-28T16:06:40;101509.16;;;4.90;60.26
63654;BME280;49809;47.418;19.080;2023-02-28T16:14:21;101517.59;;;4.86;60.99
63654;BME280;49809;47.418;19.080;2023-02-28T16:18:20;101523.94;;;4.76;61.59
63654;BME280;49809;47.418;19.080;2023-02-28T16:21:45;101524.84;;;4.84;61.66
63654;BME280;49809;47.418;19.080;2023-02-28T16:25:28;101529.63;;;4.80;61.91
63654;BME280;49809;47.418;19.080;2023-02-28T16:28:58;101534.81;;;4.73;62.33
63654;BME280;49809;47.418;19.080;2023-02-28T16:32:35;101534.28;;;4.63;62.76
63654;BME280;49809;47.418;19.080;2023-02-28T16:36:06;101535.28;;;4.62;63.09
63654;BME280;49809;47.418;19.080;2023-02-28T16:39:45;101537.34;;;4.52;64.21
63654;BME280;49809;47.418;19.080;2023-02-28T16:43:27;101537.19;;;4.54;64.23
63654;BME280;49809;47.418;19.080;2023-02-28T16:46:50;101538.34;;;4.66;63.99
63654;BME280;49809;47.418;19.080;2023-02-28T16:50:16;101548.75;;;4.59;64.16
63654;BME280;49809;47.418;19.080;2023-02-28T16:53:48;101551.19;;;4.61;64.25
63654;BME280;49809;47.418;19.080;2023-02-28T16:57:20;101558.78;;;4.56;64.62
63654;BME280;49809;47.418;19.080;2023-02-28T17:00:49;101557.94;;;4.55;65.07
63654;BME280;49809;47.418;19.080;2023-02-28T17:04:26;101557.06;;;4.48;65.31
63654;BME280;49809;47.418;19.080;2023-02-28T17:08:03;101557.62;;;4.58;65.61
63654;BME280;49809;47.418;19.080;2023-02-28T17:12:08;101566.09;;;4.60;65.29
63654;BME280;49809;47.418;19.080;2023-02-28T17:15:52;101571.25;;;4.54;65.67
63654;BME280;49809;47.418;19.080;2023-02-28T17:23:10;101570.34;;;4.47;66.26
63654;BME280;49809;47.418;19.080;2023-02-28T17:31:22;101575.41;;;4.33;67.08
63654;BME280;49809;47.418;19.080;2023-02-28T17:39:11;101577.94;;;4.42;66.98
63654;BME280;49809;47.418;19.080;2023-02-28T17:46:30;101573.22;;;4.37;66.71
63654;BME280;49809;47.418;19.080;2023-02-28T17:50:03;101570.97;;;4.34;67.16
63654;BME280;49809;47.418;19.080;2023-02-28T17:53:43;101572.37;;;4.22;67.97
63654;BME280;49809;47.418;19.080;2023-02-28T17:56:54;101576.03;;;4.21;68.48
63654;BME280;49809;47.418;19.080;2023-02-28T18:00:37;101566.00;;;4.39;67.04
63654;BME280;49809;47.418;19.080;2023-02-28T18:04:17;101583.19;;;4.42;67.14
63654;BME280;49809;47.418;19.080;2023-02-28T18:07:54;101583.91;;;4.35;67.06
63654;BME280;49809;47.418;19.080;2023-02-28T18:11:58;101584.97;;;4.26;67.18
63654;BME280;49809;47.418;19.080;2023-02-28T18:15:21;101575.94;;;4.29;67.45
63654;BME280;49809;47.418;19.080;2023-02-28T18:18:57;101586.16;;;4.24;67.87
63654;BME280;49809;47.418;19.080;2023-02-28T18:22:40;101583.25;;;4.19;68.02
63654;BME280;49809;47.418;19.080;2023-02-28T18:26:07;101588.44;;;4.04;69.02
63654;BME280;49809;47.418;19.080;2023-02-28T18:29:41;101593.03;;;4.02;69.43
63654;BME280;49809;47.418;19.080;2023-02-28T18:33:02;101588.94;;;4.22;68.44
63654;BME280;49809;47.418;19.080;2023-02-28T18:36:38;101593.47;;;4.28;67.94
63654;BME280;49809;47.418;19.080;2023-02-28T18:39:57;101592.63;;;4.13;68.98
63654;BME280;49809;47.418;19.080;2023-02-28T18:43:40;101591.38;;;4.24;68.26
63654;BME280;49809;47.418;19.080;2023-02-28T18:47:44;101596.06;;;4.14;68.74
63654;BME280;49809;47.418;19.080;2023-02-28T18:51:19;101595.69;;;4.17;68.89
63654;BME280;49809;47.418;19.080;2023-02-28T18:54:41;101593.31;;;4.07;69.42
63654;BME280;49809;47.418;19.080;2023-02-28T18:58:31;101590.16;;;4.12;69.19
63654;BME280;49809;47.418;19.080;2023-02-28T19:02:05;101587.22;;;4.15;68.85
63654;BME280;49809;47.418;19.080;2023-02-28T19:06:09;101588.63;;;4.03;69.93
63654;BME280;49809;47.418;19.080;2023-02-28T19:09:27;101592.19;;;4.10;69.18
63654;BME280;49809;47.418;19.080;2023-02-28T19:12:50;101581.66;;;3.95;69.77
63654;BME280;49809;47.418;19.080;2023-02-28T19:16:53;101573.88;;;3.87;70.45
63654;BME280;49809;47.418;19.080;2023-02-28T19:20:35;101577.94;;;3.89;70.80
63654;BME280;49809;47.418;19.080;2023-02-28T19:24:26;101579.09;;;3.87;70.94
63654;BME280;49809;47.418;19.080;2023-02-28T19:27:30;101580.03;;;3.94;70.50
63654;BME280;49809;47.418;19.080;2023-02-28T19:30:49;101591.97;;;3.97;71.05
63654;BME280;49809;47.418;19.080;2023-02-28T19:34:18;101586.78;;;3.88;71.48
63654;BME280;49809;47.418;19.080;2023-02-28T19:37:43;101589.69;;;3.93;71.14
63654;BME280;49809;47.418;19.080;2023-02-28T19:41:18;101586.06;;;3.94;71.16
63654;BME280;49809;47.418;19.080;2023-02-28T19:44:44;101581.19;;;3.91;71.06
63654;BME280;49809;47.418;19.080;2023-02-28T19:52:24;101585.41;;;3.92;71.08
63654;BME280;49809;47.418;19.080;2023-02-28T19:56:11;101584.09;;;3.97;70.56
63654;BME280;49809;47.418;19.080;2023-02-28T19:59:33;101591.22;;;4.03;70.71
63654;BME280;49809;47.418;19.080;2023-02-28T20:03:09;101593.56;;;3.98;70.76
63654;BME280;49809;47.418;19.080;2023-02-28T20:06:50;101593.28;;;3.92;70.90
63654;BME280;49809;47.418;19.080;2023-02-28T20:14:29;101593.34;;;3.84;71.77
63654;BME280;49809;47.418;19.080;2023-02-28T20:18:22;101593.34;;;3.84;72.11
63654;BME280;49809;47.418;19.080;2023-02-28T20:22:11;101587.34;;;3.99;71.48
63654;BME280;49809;47.418;19.080;2023-02-28T20:25:39;101595.13;;;3.92;71.70
63654;BME280;49809;47.418;19.080;2023-02-28T20:29:21;101587.34;;;3.99;71.95
63654;BME280;49809;47.418;19.080;2023-02-28T20:32:56;101589.59;;;3.87;71.88
63654;BME280;49809;47.418;19.080;2023-02-28T20:36:29;101584.06;;;3.82;71.99
63654;BME280;49809;47.418;19.080;2023-02-28T20:39:49;101585.94;;;3.88;72.03
63654;BME280;49809;47.418;19.080;2023-02-28T20:47:03;101577.81;;;3.83;72.72
63654;BME280;49809;47.418;19.080;2023-02-28T20:50:34;101575.66;;;3.86;72.18
63654;BME280;49809;47.418;19.080;2023-02-28T20:54:31;101578.75;;;3.90;71.87
63654;BME280;49809;47.418;19.080;2023-02-28T20:58:03;101582.25;;;3.82;72.29
63654;BME280;49809;47.418;19.080;2023-02-28T21:01:32;101588.56;;;3.88;72.08
63654;BME280;49809;47.418;19.080;2023-02-28T21:05:00;101590.38;;;3.87;72.11
63654;BME280;49809;47.418;19.080;2023-02-28T21:08:37;101584.44;;;3.93;71.68
63654;BME280;49809;47.418;19.080;2023-02-28T21:12:14;101586.78;;;3.88;72.05
63654;BME280;49809;47.418;19.080;2023-02-28T21:15:46;101584.81;;;3.90;71.94
63654;BME280;49809;47.418;19.080;2023-02-28T21:19:39;101585.41;;;3.92;72.06
63654;BME280;49809;47.418;19.080;2023-02-28T21:23:13;101583.63;;;3.93;71.71
63654;BME280;49809;47.418;19.080;2023-02-28T21:26:37;101583.50;;;4.09;70.90
63654;BME280;49809;47.418;19.080;2023-02-28T21:30:20;101585.72;;;3.98;71.79
63654;BME280;49809;47.418;19.080;2023-02-28T21:33:58;101578.50;;;4.00;71.54
63654;BME280;49809;47.418;19.080;2023-02-28T21:37:37;101574.31;;;3.90;71.96
63654;BME280;49809;47.418;19.080;2023-02-28T21:41:13;101575.75;;;3.93;71.57
63654;BME280;49809;47.418;19.080;2023-02-28T21:48:35;101576.66;;;3.85;72.02
63654;BME280;49809;47.418;19.080;2023-02-28T21:52:18;101579.91;;;3.87;71.93
63654;BME280;49809;47.418;19.080;2023-02-28T21:55:53;101573.78;;;3.95;71.64
63654;BME280;49809;47.418;19.080;2023-02-28T21:59:30;101579.91;;;3.87;71.98
63654;BME280;49809;47.418;19.080;2023-02-28T22:03:14;101578.28;;;3.86;72.57
63654;BME280;49809;47.418;19.080;2023-02-28T22:07:13;101569.41;;;3.87;72.56
63654;BME280;49809;47.418;19.080;2023-02-28T22:14:32;101574.31;;;3.90;72.46
63654;BME280;49809;47.418;19.080;2023-02-28T22:18:24;101573.13;;;3.93;72.24
63654;BME280;49809;47.418;19.080;2023-02-28T22:21:46;101570.44;;;3.86;72.57
63654;BME280;49809;47.418;19.080;2023-02-28T22:25:25;101587.94;;;3.86;72.86
63654;BME280;49809;47.418;19.080;2023-02-28T22:29:04;101577.62;;;3.84;72.75
63654;BME280;49809;47.418;19.080;2023-02-28T22:32:44;101583.53;;;3.86;72.82
63654;BME280;49809;47.418;19.080;2023-02-28T22:36:15;101582.72;;;3.86;72.50
63654;BME280;49809;47.418;19.080;2023-02-28T22:39:45;101583.63;;;3.93;72.41
63654;BME280;49809;47.418;19.080;2023-02-28T22:43:22;101576.69;;;4.00;71.87
63654;BME280;49809;47.418;19.080;2023-02-28T22:46:57;101578.38;;;3.93;72.65
63654;BME280;49809;47.418;19.080;2023-02-28T22:50:39;101579.91;;;3.87;73.48
63654;BME280;49809;47.418;19.080;2023-02-28T22:54:24;101580.53;;;3.89;72.78
63654;BME280;49809;47.418;19.080;2023-02-28T22:57:50;101582.34;;;3.89;72.71
63654;BME280;49809;47.418;19.080;2023-02-28T23:01:28;101577.94;;;3.89;73.01
63654;BME280;49809;47.418;19.080;2023-02-28T23:05:07;101579.91;;;3.87;73.64
63654;BME280;49809;47.418;19.080;2023-02-28T23:08:40;101586.44;;;3.91;73.48
63654;BME280;49809;47.418;19.080;2023-02-28T23:12:14;101571.19;;;3.95;73.07
63654;BME280;49809;47.418;19.080;2023-02-28T23:15:41;101571.06;;;3.88;73.43
63654;BME280;49809;47.418;19.080;2023-02-28T23:19:24;101573.22;;;3.85;74.12
63654;BME280;49809;47.418;19.080;2023-02-28T23:23:01;101572.56;;;3.83;74.16
63654;BME280;49809;47.418;19.080;2023-02-28T23:26:32;101574.84;;;3.86;74.83
63654;BME280;49809;47.418;19.080;2023-02-28T23:30:09;101573.88;;;3.87;74.31
63654;BME280;49809;47.418;19.080;2023-02-28T23:33:52;101557.91;;;3.74;75.77
63654;BME280;49809;47.418;19.080;2023-02-28T23:37:21;101554.97;;;3.77;74.83
63654;BME280;49809;47.418;19.080;2023-02-28T23:40:56;101557.47;;;3.70;74.64
63654;BME280;49809;47.418;19.080;2023-02-28T23:44:32;101557.16;;;3.65;73.74
63654;BME280;49809;47.418;19.080;2023-02-28T23:48:11;101560.47;;;3.59;73.99
63654;BME280;49809;47.418;19.080;2023-02-28T23:59:55;101558.81;;;3.66;73.12
